createdAt,value
2022-11-24T00:01:23.940Z,3.14
2022-11-24T00:03:56.600Z,3.46
2022-11-24T00:06:27.005Z,3.50
2022-11-24T00:08:56.502Z,3.59
2022-11-24T00:11:27.393Z,3.62
2022-11-24T00:13:56.261Z,3.78
2022-11-24T00:16:26.774Z,3.83
2022-11-24T00:18:57.502Z,3.80
2022-11-24T00:21:28.686Z,3.92
2022-11-24T00:23:57.617Z,3.61
2022-11-24T00:26:27.571Z,3.71
2022-11-24T00:28:57.703Z,3.70
2022-11-24T00:31:27.697Z,3.71
2022-11-24T00:33:57.639Z,3.71
2022-11-24T00:36:29.043Z,3.93
2022-11-24T00:38:59.313Z,3.91
2022-11-24T00:41:28.465Z,3.92
2022-11-24T00:43:58.896Z,4.11
2022-11-24T00:46:28.082Z,4.14
2022-11-24T00:48:56.959Z,3.99
2022-11-24T00:51:29.961Z,4.40
2022-11-24T00:53:58.599Z,4.16
2022-11-24T00:56:30.486Z,4.64
2022-11-24T00:58:59.240Z,4.30
2022-11-24T01:01:29.229Z,4.43
2022-11-24T01:03:58.315Z,4.22
2022-11-24T01:06:28.818Z,4.59
2022-11-24T01:08:58.307Z,4.45
2022-11-24T01:11:28.751Z,4.54
2022-11-24T01:13:59.472Z,4.68
2022-11-24T01:16:30.252Z,4.78
2022-11-24T01:18:59.076Z,4.61
2022-11-24T01:21:28.997Z,4.79
2022-11-24T01:23:57.649Z,4.47
2022-11-24T01:26:26.095Z,4.46
2022-11-24T01:28:55.069Z,4.57
2022-11-24T01:31:24.372Z,4.63
2022-11-24T01:33:53.371Z,4.54
2022-11-24T01:36:22.049Z,4.51
2022-11-24T01:38:52.139Z,4.83
2022-11-24T01:41:22.116Z,4.78
2022-11-24T01:43:52.231Z,4.57
2022-11-24T01:46:24.349Z,4.84
2022-11-24T01:48:57.656Z,4.68
2022-11-24T01:51:28.504Z,4.64
2022-11-24T01:54:00.917Z,4.73
2022-11-24T01:56:29.996Z,4.56
2022-11-24T01:59:00.461Z,4.65
2022-11-24T02:01:31.667Z,4.72
2022-11-24T02:04:01.145Z,4.61
2022-11-24T02:06:31.917Z,4.70
2022-11-24T02:09:04.260Z,4.87
2022-11-24T02:11:37.512Z,4.96
2022-11-24T02:14:07.185Z,4.71
2022-11-24T02:16:36.199Z,4.72
2022-11-24T02:19:06.088Z,4.79
2022-11-24T02:21:34.343Z,4.54
2022-11-24T02:24:09.717Z,4.97
2022-11-24T02:26:43.125Z,4.94
2022-11-24T02:29:11.964Z,4.55
2022-11-24T02:31:42.560Z,4.88
2022-11-24T02:34:11.009Z,4.54
2022-11-24T02:36:39.434Z,4.60
2022-11-24T02:39:11.382Z,4.99
2022-11-24T02:41:42.499Z,4.86
2022-11-24T02:44:11.239Z,4.56
2022-11-24T02:46:39.644Z,4.44
2022-11-24T02:49:08.373Z,4.37
2022-11-24T02:51:36.640Z,4.38
2022-11-24T02:54:05.233Z,4.42
2022-11-24T02:56:33.742Z,4.37
2022-11-24T02:59:03.513Z,4.60
2022-11-24T03:01:31.837Z,4.26
2022-11-24T03:04:00.368Z,4.25
2022-11-24T03:06:28.592Z,4.32
2022-11-24T03:08:57.006Z,4.34
2022-11-24T03:11:25.335Z,4.34
2022-11-24T03:13:53.993Z,4.34
2022-11-24T03:16:23.737Z,4.71
2022-11-24T03:18:52.342Z,4.48
2022-11-24T03:21:20.990Z,4.57
2022-11-24T03:23:49.436Z,4.47
2022-11-24T03:26:19.476Z,4.72
2022-11-24T03:28:48.337Z,4.57
2022-11-24T03:31:16.936Z,4.61
2022-11-24T03:33:46.839Z,4.83
2022-11-24T03:36:15.204Z,4.40
2022-11-24T03:38:43.888Z,4.35
2022-11-24T03:41:12.223Z,4.46
2022-11-24T03:43:44.027Z,4.36
2022-11-24T03:46:13.022Z,4.41
2022-11-24T03:48:41.587Z,4.40
2022-11-24T03:51:11.788Z,4.71
2022-11-24T03:53:40.289Z,4.46
2022-11-24T03:56:08.889Z,4.45
2022-11-24T03:58:37.473Z,4.39
2022-11-24T04:01:05.895Z,4.45
2022-11-24T04:03:34.291Z,4.44
2022-11-24T04:06:02.393Z,4.44
2022-11-24T04:08:32.336Z,4.72
2022-11-24T04:11:01.178Z,4.46
2022-11-24T04:13:28.964Z,4.60
2022-11-24T04:15:57.398Z,4.50
2022-11-24T04:18:26.023Z,4.56
2022-11-24T04:20:54.292Z,4.53
2022-11-24T04:23:22.935Z,4.54
2022-11-24T04:25:52.442Z,4.74
2022-11-24T04:28:20.954Z,4.44
2022-11-24T04:30:49.309Z,4.46
2022-11-24T04:33:17.734Z,4.40
2022-11-24T04:35:45.852Z,4.35
2022-11-24T04:39:23.057Z,4.34
2022-11-24T04:41:04.378Z,4.49
2022-11-24T04:43:39.107Z,4.31
2022-11-24T04:46:11.525Z,4.44
2022-11-24T04:48:40.040Z,4.08
2022-11-24T04:51:08.359Z,4.15
2022-11-24T04:53:36.923Z,4.14
2022-11-24T04:56:08.247Z,4.56
2022-11-24T04:58:37.339Z,4.42
2022-11-24T05:01:09.122Z,4.67
2022-11-24T05:03:38.184Z,4.43
2022-11-24T05:06:08.961Z,4.40
2022-11-24T05:08:38.063Z,4.51
2022-11-24T05:11:08.589Z,4.63
2022-11-24T05:13:37.164Z,4.40
2022-11-24T05:16:06.002Z,4.41
2022-11-24T05:18:34.742Z,4.46
2022-11-24T05:21:03.303Z,4.59
2022-11-24T05:23:31.987Z,4.67
2022-11-24T05:26:01.216Z,4.78
2022-11-24T05:28:31.110Z,4.83
2022-11-24T05:31:01.617Z,4.79
2022-11-24T05:33:30.378Z,4.56
2022-11-24T05:36:02.357Z,4.93
2022-11-24T05:38:31.237Z,4.52
2022-11-24T05:41:02.231Z,4.75
2022-11-24T05:43:32.467Z,4.70
2022-11-24T05:46:01.607Z,4.46
2022-11-24T05:48:30.364Z,4.40
2022-11-24T05:50:59.748Z,4.47
2022-11-24T05:53:28.337Z,4.33
2022-11-24T05:55:56.581Z,4.43
2022-11-24T05:58:25.239Z,4.44
2022-11-24T06:00:54.722Z,4.66
2022-11-24T06:03:23.844Z,4.33
2022-11-24T06:05:51.911Z,4.31
2022-11-24T06:08:20.519Z,4.42
2022-11-24T06:10:48.705Z,4.36
2022-11-24T06:13:18.350Z,4.23
2022-11-24T06:15:46.759Z,4.28
2022-11-24T06:18:16.565Z,4.60
2022-11-24T06:21:02.812Z,4.31
2022-11-24T06:23:33.502Z,4.27
2022-11-24T06:26:01.984Z,4.33
2022-11-24T06:28:30.386Z,4.25
2022-11-24T06:31:02.115Z,4.55
2022-11-24T06:33:35.476Z,4.45
2022-11-24T06:36:05.329Z,4.18
2022-11-24T06:38:33.839Z,4.07
2022-11-24T06:41:02.505Z,4.18
2022-11-24T06:43:31.934Z,4.36
2022-11-24T06:46:00.730Z,4.18
2022-11-24T06:48:29.811Z,4.41
2022-11-24T06:51:01.782Z,4.54
2022-11-24T06:53:31.158Z,4.38
2022-11-24T06:56:00.115Z,4.30
2022-11-24T06:58:28.826Z,4.11
2022-11-24T07:00:57.261Z,4.10
2022-11-24T07:03:28.083Z,4.07
2022-11-24T07:06:01.307Z,4.50
2022-11-24T07:08:29.817Z,4.17
2022-11-24T07:10:57.938Z,4.09
2022-11-24T07:13:26.241Z,4.25
2022-11-24T07:15:54.423Z,4.29
2022-11-24T07:18:22.860Z,4.33
2022-11-24T07:20:51.339Z,4.40
2022-11-24T07:23:21.256Z,4.72
2022-11-24T07:25:49.680Z,4.49
2022-11-24T07:28:18.384Z,4.38
2022-11-24T07:30:46.543Z,4.36
2022-11-24T07:33:16.345Z,4.38
2022-11-24T07:35:44.381Z,4.30
2022-11-24T07:38:12.894Z,4.23
2022-11-24T07:40:42.402Z,4.56
2022-11-24T07:43:14.592Z,4.36
2022-11-24T07:45:45.301Z,4.36
2022-11-24T07:48:13.866Z,4.46
2022-11-24T07:50:42.190Z,4.53
2022-11-24T07:53:10.765Z,4.47
2022-11-24T07:55:38.901Z,4.45
2022-11-24T07:58:09.211Z,4.72
2022-11-24T08:00:37.386Z,4.46
2022-11-24T08:03:06.080Z,4.39
2022-11-24T08:05:34.260Z,4.46
2022-11-24T08:08:02.883Z,4.50
2022-11-24T08:10:31.013Z,4.46
2022-11-24T08:13:01.224Z,4.68
2022-11-24T08:15:30.746Z,4.74
2022-11-24T08:18:02.453Z,4.85
2022-11-24T08:20:30.562Z,5.25
2022-11-24T08:23:00.134Z,4.58
2022-11-24T08:25:32.212Z,4.55
2022-11-24T08:28:01.131Z,4.57
2022-11-24T08:30:31.042Z,4.90
2022-11-24T08:33:00.694Z,4.92
2022-11-24T08:35:29.577Z,4.82
2022-11-24T08:38:03.203Z,4.56
2022-11-24T08:40:33.845Z,4.71
2022-11-24T08:43:02.611Z,4.77
2022-11-24T08:45:35.456Z,5.00
2022-11-24T08:48:07.963Z,4.70
2022-11-24T08:50:36.291Z,4.65
2022-11-24T08:53:04.566Z,4.63
2022-11-24T08:55:33.007Z,4.39
2022-11-24T08:58:01.245Z,4.38
2022-11-24T09:00:29.768Z,4.41
2022-11-24T09:03:00.098Z,4.64
2022-11-24T09:05:51.157Z,4.35
2022-11-24T09:08:16.898Z,4.32
2022-11-24T09:10:45.372Z,4.41
2022-11-24T09:13:13.701Z,4.36
2022-11-24T09:15:42.471Z,4.39
2022-11-24T09:18:11.913Z,4.69
2022-11-24T09:20:40.847Z,4.34
2022-11-24T09:23:09.248Z,4.32
2022-11-24T09:25:37.700Z,4.20
2022-11-24T09:28:06.079Z,4.17
2022-11-24T09:30:35.733Z,3.99
2022-11-24T09:33:04.021Z,3.95
2022-11-24T09:35:33.775Z,4.16
2022-11-24T09:38:01.899Z,3.86
2022-11-24T09:40:30.480Z,3.93
2022-11-24T09:43:02.155Z,4.18
2022-11-24T09:46:04.377Z,4.34
2022-11-24T09:48:35.696Z,4.13
2022-11-24T09:51:06.141Z,4.11
2022-11-24T09:53:38.529Z,4.16
2022-11-24T09:56:17.637Z,4.23
2022-11-24T09:58:48.511Z,4.04
2022-11-24T10:01:19.071Z,3.92
2022-11-24T10:03:49.117Z,3.90
2022-11-24T10:06:24.529Z,4.09
2022-11-24T10:09:09.058Z,4.14
2022-11-24T10:11:40.929Z,3.89
2022-11-24T10:14:25.643Z,4.01
2022-11-24T10:16:58.008Z,3.81
2022-11-24T10:19:37.432Z,4.00
2022-11-24T10:22:21.404Z,4.20
2022-11-24T10:25:09.371Z,4.41
2022-11-24T10:27:41.758Z,4.24
2022-11-24T10:30:16.230Z,4.36
2022-11-24T10:32:48.173Z,4.39
2022-11-24T10:35:19.724Z,4.45
2022-11-24T10:37:56.094Z,4.55
2022-11-24T10:43:23.258Z,4.22
2022-11-24T10:45:51.463Z,4.34
2022-11-24T10:48:21.469Z,4.57
2022-11-24T10:50:49.659Z,4.31
2022-11-24T10:53:23.575Z,4.76
2022-11-24T10:55:59.959Z,4.82
2022-11-24T10:58:34.451Z,4.60
2022-11-24T11:01:21.699Z,4.87
2022-11-24T11:03:52.276Z,4.51
2022-11-24T11:06:23.983Z,4.78
2022-11-24T11:09:17.681Z,5.00
2022-11-24T11:11:48.386Z,4.41
2022-11-24T11:14:30.919Z,4.93
2022-11-24T11:16:59.508Z,4.49
2022-11-24T11:19:50.670Z,4.72
2022-11-24T11:22:25.800Z,4.71
2022-11-24T11:25:08.337Z,4.81
2022-11-24T11:27:36.462Z,4.25
2022-11-24T11:36:12.008Z,4.45
2022-11-24T11:38:41.101Z,4.48
2022-11-24T11:41:20.076Z,4.80
2022-11-24T11:43:53.603Z,4.71
2022-11-24T11:46:22.629Z,4.57
2022-11-24T11:48:50.802Z,4.39
2022-11-24T11:51:39.807Z,4.95
2022-11-24T11:54:15.702Z,4.85
2022-11-24T11:56:47.303Z,4.73
2022-11-24T11:59:36.562Z,4.98
2022-11-24T12:02:29.735Z,5.02
2022-11-24T12:05:01.048Z,4.99
2022-11-24T12:07:42.990Z,5.11
2022-11-24T12:10:19.286Z,4.88
2022-11-24T12:13:00.958Z,4.93
2022-11-24T12:15:31.175Z,5.24
2022-11-24T12:18:26.793Z,4.77
2022-11-24T12:21:05.375Z,4.72
2022-11-24T12:23:42.774Z,4.56
2022-11-24T12:26:16.704Z,4.72
2022-11-24T12:28:55.493Z,4.79
2022-11-24T12:31:29.766Z,4.80
2022-11-24T12:34:20.450Z,4.86
2022-11-24T12:37:09.205Z,5.01
2022-11-24T12:39:45.671Z,4.95
2022-11-24T12:42:19.843Z,4.87
2022-11-24T12:45:02.670Z,5.11
2022-11-24T12:47:39.521Z,5.00
2022-11-24T12:50:11.566Z,4.94
2022-11-24T12:52:42.026Z,4.92
2022-11-24T12:55:16.725Z,4.89
2022-11-24T12:57:50.773Z,4.95
2022-11-24T13:00:23.306Z,4.99
2022-11-24T13:03:17.257Z,5.25
2022-11-24T13:05:51.512Z,5.00
2022-11-24T13:08:20.479Z,4.84
2022-11-24T13:10:57.818Z,4.73
2022-11-24T13:13:29.157Z,5.14
2022-11-24T13:16:35.812Z,5.29
2022-11-24T13:19:14.222Z,5.22
2022-11-24T13:22:04.021Z,5.25
2022-11-24T13:24:34.171Z,4.78
2022-11-24T13:27:42.750Z,5.22
2022-11-24T13:30:52.242Z,5.31
2022-11-24T13:33:37.754Z,5.17
2022-11-24T13:36:33.945Z,5.19
2022-11-24T13:39:04.715Z,4.75
2022-11-24T13:42:42.235Z,5.17
2022-11-24T13:45:00.954Z,4.64
2022-11-24T13:47:35.252Z,4.79
2022-11-24T13:50:07.615Z,4.65
2022-11-24T13:52:47.339Z,4.91
2022-11-24T13:55:40.361Z,5.10
2022-11-24T13:58:28.395Z,5.19
2022-11-24T14:01:14.935Z,5.06
2022-11-24T14:07:08.372Z,4.99
2022-11-24T14:09:42.157Z,4.94
2022-11-24T14:12:15.332Z,4.91
2022-11-24T14:14:44.439Z,4.58
2022-11-24T14:17:20.782Z,4.65
2022-11-24T14:19:50.341Z,4.41
2022-11-24T14:22:22.793Z,4.50
2022-11-24T14:24:55.560Z,4.55
2022-11-24T14:27:29.883Z,4.45
2022-11-24T14:30:00.088Z,4.29
2022-11-24T14:32:29.091Z,4.21
2022-11-24T14:34:57.410Z,4.10
2022-11-24T14:37:27.460Z,4.37
2022-11-24T14:39:58.472Z,4.13
2022-11-24T14:42:30.040Z,4.13
2022-11-24T14:44:59.396Z,4.59
2022-11-24T14:47:32.080Z,4.71
2022-11-24T14:50:10.099Z,4.93
2022-11-24T14:52:45.167Z,4.82
2022-11-24T14:55:26.233Z,4.74
2022-11-24T14:57:54.823Z,4.30
2022-11-24T15:00:29.026Z,4.58
2022-11-24T15:03:13.714Z,4.65
2022-11-24T15:05:52.842Z,4.73
2022-11-24T15:08:23.602Z,4.49
2022-11-24T15:10:57.771Z,4.63
2022-11-24T15:13:26.462Z,4.34
2022-11-24T15:16:02.020Z,4.46
2022-11-24T15:18:37.815Z,4.64
2022-11-24T15:21:06.040Z,4.27
2022-11-24T15:23:37.557Z,4.56
2022-11-24T15:26:30.699Z,4.81
2022-11-24T15:29:01.711Z,4.20
2022-11-24T15:31:29.996Z,4.22
2022-11-24T15:33:58.548Z,4.20
2022-11-24T15:36:26.696Z,4.27
2022-11-24T15:38:56.672Z,4.72
2022-11-24T15:41:29.361Z,4.88
2022-11-24T15:44:00.048Z,4.63
2022-11-24T15:46:28.692Z,4.81
2022-11-24T15:48:57.444Z,4.79
2022-11-24T15:51:26.823Z,5.12
2022-11-24T15:54:01.116Z,5.15
2022-11-24T15:56:32.256Z,5.05
2022-11-24T15:59:00.874Z,4.71
2022-11-24T16:01:32.676Z,4.96
2022-11-24T16:04:01.671Z,4.57
2022-11-24T16:06:29.954Z,4.65
2022-11-24T16:08:59.659Z,5.02
2022-11-24T16:11:28.150Z,4.67
2022-11-24T16:13:56.586Z,4.60
2022-11-24T16:16:25.720Z,4.71
2022-11-24T16:18:54.351Z,4.66
2022-11-24T16:21:23.303Z,4.61
2022-11-24T16:23:51.942Z,4.60
2022-11-24T16:26:21.534Z,4.88
2022-11-24T16:28:49.974Z,4.54
2022-11-24T16:31:19.213Z,4.54
2022-11-24T16:33:47.884Z,4.53
2022-11-24T16:36:16.447Z,4.64
2022-11-24T16:38:45.047Z,4.60
2022-11-24T16:41:13.639Z,4.56
2022-11-24T16:43:43.587Z,4.79
2022-11-24T16:46:20.519Z,4.96
2022-11-24T16:48:50.196Z,4.73
2022-11-24T16:51:19.102Z,4.78
2022-11-24T16:53:47.831Z,4.76
2022-11-24T16:56:16.574Z,4.74
2022-11-24T16:58:46.531Z,4.96
2022-11-24T17:01:15.079Z,4.78
2022-11-24T17:03:43.748Z,4.82
2022-11-24T17:06:15.854Z,5.16
2022-11-24T17:08:45.544Z,5.08
2022-11-24T17:11:15.360Z,5.09
2022-11-24T17:13:44.401Z,4.99
2022-11-24T17:16:15.224Z,5.23
2022-11-24T17:18:44.013Z,4.94
2022-11-24T17:21:14.034Z,5.19
2022-11-24T17:23:42.957Z,4.93
2022-11-24T17:26:13.618Z,5.22
2022-11-24T17:28:42.513Z,4.80
2022-11-24T17:31:11.492Z,4.92
2022-11-24T17:33:41.297Z,5.13
2022-11-24T17:36:10.102Z,4.93
2022-11-24T17:38:38.539Z,4.79
2022-11-24T17:41:07.046Z,4.77
2022-11-24T17:43:35.670Z,4.84
2022-11-24T17:46:05.626Z,5.11
2022-11-24T17:48:34.638Z,4.99
2022-11-24T17:51:06.298Z,5.32
2022-11-24T17:53:37.050Z,5.08
2022-11-24T17:56:05.689Z,4.94
2022-11-24T17:58:41.297Z,5.05
2022-11-24T18:01:11.410Z,4.87
2022-11-24T18:03:40.469Z,4.98
2022-11-24T18:06:11.475Z,5.21
2022-11-24T18:08:40.074Z,5.75
2022-11-24T18:11:09.382Z,5.03
2022-11-24T18:13:56.460Z,4.87
2022-11-24T18:16:28.358Z,4.94
2022-11-24T18:19:07.891Z,5.01
2022-11-24T18:21:38.842Z,5.28
2022-11-24T18:24:07.891Z,5.15
2022-11-24T18:26:36.045Z,5.01
2022-11-24T18:29:05.405Z,5.21
2022-11-24T18:31:35.680Z,5.08
2022-11-24T18:34:05.090Z,4.94
2022-11-24T18:36:33.426Z,4.99
2022-11-24T18:39:03.479Z,5.38
2022-11-24T18:41:31.957Z,5.13
2022-11-24T18:44:02.392Z,5.17
2022-11-24T18:46:30.818Z,5.25
2022-11-24T18:49:00.320Z,5.44
2022-11-24T18:51:28.566Z,5.18
2022-11-24T18:53:58.316Z,5.29
2022-11-24T18:56:28.347Z,5.56
2022-11-24T18:58:57.646Z,5.40
2022-11-24T19:01:27.100Z,5.43
2022-11-24T19:03:56.740Z,5.31
2022-11-24T19:06:28.923Z,5.42
2022-11-24T19:08:57.608Z,5.16
2022-11-24T19:11:29.155Z,5.54
2022-11-24T19:13:58.000Z,5.32
2022-11-24T19:16:26.660Z,5.26
2022-11-24T19:18:57.345Z,5.43
2022-11-24T19:21:25.537Z,5.14
2022-11-24T19:23:54.164Z,5.18
2022-11-24T19:26:22.287Z,5.06
2022-11-24T19:28:52.390Z,5.40
2022-11-24T19:31:20.791Z,5.13
2022-11-24T19:33:49.192Z,5.08
2022-11-24T19:36:19.105Z,5.34
2022-11-24T19:38:51.059Z,5.43
2022-11-24T19:41:20.229Z,5.89
2022-11-24T19:43:49.532Z,5.24
2022-11-24T19:46:19.903Z,5.44
2022-11-24T19:48:51.239Z,5.29
2022-11-24T19:51:21.472Z,5.30
2022-11-24T19:53:50.028Z,5.05
2022-11-24T19:56:19.651Z,5.30
2022-11-24T19:58:49.478Z,5.22
2022-11-24T20:01:20.590Z,5.26
2022-11-24T20:03:50.343Z,5.87
2022-11-24T20:06:18.455Z,4.87
2022-11-24T20:08:46.961Z,4.91
2022-11-24T20:11:16.575Z,5.16
2022-11-24T20:13:46.127Z,5.20
2022-11-24T20:16:15.934Z,5.26
2022-11-24T20:18:47.343Z,5.37
2022-11-24T20:21:19.856Z,5.39
2022-11-24T20:23:53.938Z,5.37
2022-11-24T20:26:23.419Z,5.11
2022-11-24T20:28:52.537Z,5.01
2022-11-24T20:31:22.344Z,5.13
2022-11-24T20:33:52.489Z,5.25
2022-11-24T20:36:23.388Z,5.17
2022-11-24T20:38:52.820Z,4.97
2022-11-24T20:41:23.706Z,5.10
2022-11-24T20:43:52.629Z,5.65
2022-11-24T20:46:22.154Z,4.96
2022-11-24T20:48:52.722Z,4.75
2022-11-24T20:51:22.696Z,5.01
2022-11-24T20:53:51.514Z,4.79
2022-11-24T20:56:22.018Z,5.06
2022-11-24T20:58:51.096Z,4.72
2022-11-24T21:01:21.293Z,4.97
2022-11-24T21:03:54.022Z,5.24
2022-11-24T21:06:22.241Z,4.74
2022-11-24T21:08:51.138Z,4.73
2022-11-24T21:11:19.845Z,4.86
2022-11-24T21:13:49.791Z,4.86
2022-11-24T21:16:20.308Z,4.94
2022-11-24T21:18:53.026Z,5.15
2022-11-24T21:21:22.126Z,5.02
2022-11-24T21:23:51.081Z,4.90
2022-11-24T21:26:20.599Z,5.07
2022-11-24T21:28:49.355Z,4.91
2022-11-24T21:31:20.018Z,5.14
2022-11-24T21:33:50.080Z,5.12
2022-11-24T21:36:20.942Z,5.11
2022-11-24T21:38:52.998Z,5.05
2022-11-24T21:41:21.912Z,4.44
2022-11-24T21:43:50.503Z,4.56
2022-11-24T21:46:18.757Z,4.51
2022-11-24T21:48:47.153Z,4.47
2022-11-24T21:51:16.227Z,4.71
2022-11-24T21:53:46.949Z,4.83
2022-11-24T21:56:17.110Z,4.75
2022-11-24T21:58:47.452Z,4.66
2022-11-24T22:01:17.605Z,4.47
2022-11-24T22:03:46.857Z,4.47
2022-11-24T22:06:15.125Z,4.27
2022-11-24T22:08:45.029Z,4.18
2022-11-24T22:11:14.876Z,4.45
2022-11-24T22:13:44.745Z,4.30
2022-11-24T22:16:14.615Z,4.30
2022-11-24T22:18:44.115Z,4.23
2022-11-24T22:21:14.021Z,4.27
2022-11-24T22:23:42.775Z,4.14
2022-11-24T22:26:15.308Z,4.56
2022-11-24T22:28:44.139Z,4.20
2022-11-24T22:31:13.905Z,4.41
2022-11-24T22:33:43.707Z,4.25
2022-11-24T22:36:12.304Z,4.43
2022-11-24T22:38:40.976Z,4.34
2022-11-24T22:41:10.885Z,4.50
2022-11-24T22:43:41.379Z,4.61
2022-11-24T22:46:12.120Z,4.70
2022-11-24T22:48:40.808Z,4.40
2022-11-24T22:51:10.799Z,4.58
2022-11-24T22:53:39.449Z,4.30
2022-11-24T22:56:09.546Z,4.52
2022-11-24T22:58:38.452Z,4.40
2022-11-24T23:01:09.107Z,4.53
2022-11-24T23:03:38.199Z,4.41
2022-11-24T23:06:09.516Z,4.58
2022-11-24T23:08:38.567Z,4.35
2022-11-24T23:11:09.861Z,4.53
2022-11-24T23:13:38.746Z,4.40
2022-11-24T23:16:09.915Z,4.58
2022-11-24T23:18:38.683Z,4.33
2022-11-24T23:21:09.083Z,4.55
2022-11-24T23:23:37.591Z,4.18
2022-11-24T23:26:08.125Z,4.48
2022-11-24T23:28:36.655Z,4.19
2022-11-24T23:31:05.938Z,4.40
2022-11-24T23:33:36.052Z,4.54
2022-11-24T23:36:05.944Z,4.42
2022-11-24T23:38:34.474Z,4.33
2022-11-24T23:41:04.708Z,4.51
2022-11-24T23:43:33.536Z,4.27
2022-11-24T23:46:05.218Z,4.66
2022-11-24T23:48:35.503Z,4.37
2022-11-24T23:51:07.786Z,4.60
2022-11-24T23:53:37.107Z,4.30
2022-11-24T23:56:05.962Z,4.10
2022-11-24T23:58:34.732Z,4.18
